Terminal Aerodrome Forecast
Issued by NWS

Home | Current Version | Previous Version | Text Only | Print | Product List | Glossary On
Versions: 1 2 3 4 5 6 7 8 9 10 11 12 13 14 15 16 17 18 19 20 21 22 23 24 25 26 27 28 29 30 31 32 33
000
FTUS45 KPSR 051721
TAFSDL
TAF
KSDL 051721Z 0518/0618 VRB05KT P6SM FEW050 SCT080
     FM052100 23010KT P6SM FEW050 BKN080
     FM060200 25005KT P6SM FEW080 SCT150
     FM060500 VRB04KT P6SM FEW100 BKN250=

USA.gov is the U.S. government's official web portal to all federal, state and local government web resources and services.